Time;durP1;ratioP1;P1;durP2;ratioP2;P2;SDS_P1;SDS_P2;PMS_P1;PMS_P2;Temp;Humidity;BMP_temperature;BMP_pressure;BME280_temperature;BME280_humidity;BME280_pressure;Samples;Min_cycle;Max_cycle;Signal;HPM_P1;HPM_P2
2022/12/02 00:00:49;;;;;;;67.20;24.75;;;;;;;2.53;100.00;96511.56;5078980;28;20140;-83
2022/12/02 00:03:22;;;;;;;79.10;24.58;;;;;;;2.54;100.00;96513.19;5078663;28;20044;-83
2022/12/02 00:05:50;;;;;;;59.47;23.70;;;;;;;2.51;100.00;96511.03;5080311;28;20049;-82
2022/12/02 00:08:20;;;;;;;79.40;25.20;;;;;;;2.49;100.00;96499.72;5079985;28;20041;-83
2022/12/02 00:10:47;;;;;;;74.03;24.25;;;;;;;2.48;100.00;96508.88;5078662;28;20040;-82
2022/12/02 00:13:23;;;;;;;70.43;23.33;;;;;;;2.48;100.00;96503.47;5078992;28;20063;-82
2022/12/02 00:15:52;;;;;;;67.07;24.85;;;;;;;2.45;100.00;96499.44;5078820;28;20045;-82
2022/12/02 00:18:19;;;;;;;78.13;25.08;;;;;;;2.48;100.00;96503.47;5079513;28;20052;-83
2022/12/02 00:20:46;;;;;;;76.93;24.35;;;;;;;2.45;100.00;96499.44;5079492;28;20052;-81
2022/12/02 00:23:13;;;;;;;69.45;23.95;;;;;;;2.45;100.00;96495.94;5079614;28;20086;-81
2022/12/02 00:25:40;;;;;;;69.57;25.67;;;;;;;2.40;100.00;96498.59;5080016;28;20056;-83
2022/12/02 00:28:06;;;;;;;64.68;24.92;;;;;;;2.36;100.00;96495.66;5078693;28;20055;-82
2022/12/02 00:30:35;;;;;;;101.55;27.25;;;;;;;2.37;100.00;96491.09;5076007;28;20045;-82
2022/12/02 00:33:01;;;;;;;90.75;26.38;;;;;;;2.34;100.00;96493.19;5079823;28;20044;-82
2022/12/02 00:35:28;;;;;;;74.72;25.38;;;;;;;2.34;100.00;96493.19;5079624;28;20041;-83
2022/12/02 00:37:54;;;;;;;81.10;26.38;;;;;;;2.29;100.00;96495.88;5081126;28;20051;-82
2022/12/02 00:40:21;;;;;;;98.40;25.80;;;;;;;2.32;100.00;96489.16;5081326;28;20044;-82
2022/12/02 00:42:47;;;;;;;101.22;27.52;;;;;;;2.31;100.00;96483.00;5083316;28;20055;-81
2022/12/02 00:48:00;;;;;;;92.60;26.75;;;;;;;2.31;100.00;96482.19;5069403;28;20632;-82
2022/12/02 00:50:28;;;;;;;80.18;26.23;;;;;;;2.28;100.00;96480.81;5076002;28;20373;-81
2022/12/02 00:52:54;;;;;;;88.05;26.58;;;;;;;2.30;100.00;96481.38;5069786;28;20048;-82
2022/12/02 00:55:21;;;;;;;77.55;26.52;;;;;;;2.32;100.00;96479.22;5076006;28;20041;-82
2022/12/02 00:57:48;;;;;;;86.82;27.52;;;;;;;2.28;100.00;96480.00;5076380;28;20054;-81
2022/12/02 01:00:15;;;;;;;81.40;24.88;;;;;;;2.31;100.00;96479.50;5075936;28;20055;-82
2022/12/02 01:02:42;;;;;;;80.05;27.20;;;;;;;2.31;100.00;96474.13;5075713;28;20056;-81
2022/12/02 01:05:10;;;;;;;78.90;26.75;;;;;;;2.31;100.00;96479.50;5052160;28;20048;-81
2022/12/02 01:07:37;;;;;;;82.22;26.75;;;;;;;2.27;100.00;96471.16;5076620;28;20049;-81
2022/12/02 01:10:05;;;;;;;85.18;27.20;;;;;;;2.30;100.00;96478.69;5076381;28;20067;-81
2022/12/02 01:12:32;;;;;;;99.70;25.40;;;;;;;2.28;100.00;96471.94;5060448;28;20048;-81
2022/12/02 01:14:58;;;;;;;98.05;26.65;;;;;;;2.22;100.00;96473.81;5081364;28;20113;-81
2022/12/02 01:17:27;;;;;;;92.40;27.08;;;;;;;2.25;100.00;96473.31;5080811;28;20063;-83
2022/12/02 01:19:54;;;;;;;77.70;25.45;;;;;;;2.28;100.00;96472.75;5081998;28;20048;-83
2022/12/02 01:22:22;;;;;;;101.18;27.38;;;;;;;2.28;100.00;96472.75;5082879;28;20049;-83
2022/12/02 01:24:48;;;;;;;110.10;28.60;;;;;;;2.30;100.00;96465.25;5093261;28;20048;-83
2022/12/02 01:27:15;;;;;;;89.60;26.52;;;;;;;2.32;100.00;96463.09;5093422;28;20040;-82
2022/12/02 01:29:42;;;;;;;93.43;26.92;;;;;;;2.34;100.00;96465.53;5085144;28;20116;-83
2022/12/02 01:32:09;;;;;;;89.47;27.20;;;;;;;2.35;100.00;96462.59;5093184;28;20048;-84
2022/12/02 01:34:35;;;;;;;81.50;26.58;;;;;;;2.37;100.00;96458.84;5095799;28;20041;-82
2022/12/02 01:37:02;;;;;;;82.47;24.55;;;;;;;2.39;100.00;96459.38;5097037;28;20028;-83
2022/12/02 01:39:30;;;;;;;88.95;25.75;;;;;;;2.41;100.00;96457.25;5096608;28;20027;-81
2022/12/02 01:41:56;;;;;;;76.35;26.85;;;;;;;2.40;100.00;96458.28;5094705;28;20127;-82
2022/12/02 01:44:23;;;;;;;81.32;26.55;;;;;;;2.43;100.00;96457.78;5096059;28;20135;-82
2022/12/02 01:46:50;;;;;;;92.75;26.40;;;;;;;2.44;100.00;96454.81;5097562;28;20050;-82
2022/12/02 01:49:18;;;;;;;104.32;26.42;;;;;;;2.44;100.00;96454.00;5097341;28;20607;-83
2022/12/02 01:51:44;;;;;;;94.18;27.05;;;;;;;2.43;100.00;96457.78;5098113;28;20052;-83
2022/12/02 01:54:11;;;;;;;84.18;26.92;;;;;;;2.44;100.00;96460.19;5087618;28;20045;-82
2022/12/02 01:56:40;;;;;;;68.80;24.67;;;;;;;2.49;100.00;96456.72;5079332;28;20040;-83
2022/12/02 01:59:10;;;;;;;74.88;26.77;;;;;;;2.47;100.00;96458.88;5079170;28;20051;-82
2022/12/02 02:01:36;;;;;;;77.47;25.77;;;;;;;2.47;100.00;96457.00;5061015;28;20048;-82
2022/12/02 02:04:04;;;;;;;66.18;24.45;;;;;;;2.48;100.00;96449.72;5079296;28;20051;-81
2022/12/02 02:06:35;;;;;;;72.72;25.73;;;;;;;2.49;100.00;96452.16;5079507;28;20056;-81
2022/12/02 02:09:01;;;;;;;59.60;24.65;;;;;;;2.46;100.00;96441.94;5078514;28;20131;-82
2022/12/02 02:11:28;;;;;;;67.38;26.55;;;;;;;2.50;100.00;96447.56;5071655;28;20400;-80
2022/12/02 02:13:57;;;;;;;64.97;25.73;;;;;;;2.49;100.00;96446.78;5080078;28;20049;-81
2022/12/02 02:16:25;;;;;;;72.03;25.15;;;;;;;2.49;100.00;96444.06;5080277;28;20040;-82
2022/12/02 02:18:52;;;;;;;73.53;25.63;;;;;;;2.48;100.00;96444.34;5081690;28;20045;-82
2022/12/02 02:21:22;;;;;;;77.68;27.27;;;;;;;2.48;100.00;96438.97;5079939;28;20490;-81
2022/12/02 02:23:50;;;;;;;83.93;23.83;;;;;;;2.48;100.00;96445.16;5079176;28;20062;-82
2022/12/02 02:26:17;;;;;;;91.07;25.25;;;;;;;2.48;100.00;96436.28;5078953;28;20041;-82
2022/12/02 02:28:44;;;;;;;98.65;24.88;;;;;;;2.49;100.00;96437.91;5079270;28;20048;-80
2022/12/02 02:31:10;;;;;;;69.72;24.45;;;;;;;2.53;100.00;96436.31;5079201;28;20072;-81
2022/12/02 02:33:38;;;;;;;96.45;26.38;;;;;;;2.56;99.85;96435.78;5078644;28;20047;-81
2022/12/02 02:36:05;;;;;;;66.50;24.20;;;;;;;2.57;100.00;96435.50;5079372;28;20044;-81
2022/12/02 02:38:32;;;;;;;61.35;23.70;;;;;;;2.57;99.86;96432.03;5079626;28;20055;-81
2022/12/02 02:41:03;;;;;;;78.55;25.02;;;;;;;2.61;99.71;96427.75;5073809;28;20055;-82
2022/12/02 02:43:31;;;;;;;72.22;23.88;;;;;;;2.61;99.78;96433.13;5078868;28;20045;-82
2022/12/02 02:46:00;;;;;;;75.90;25.05;;;;;;;2.62;99.77;96432.03;5092991;28;20028;-83
2022/12/02 02:48:27;;;;;;;93.90;25.60;;;;;;;2.63;100.00;96422.91;5098040;28;20050;-82
2022/12/02 02:50:55;;;;;;;87.40;27.77;;;;;;;2.67;100.00;96426.69;5084110;28;20088;-83
2022/12/02 02:53:24;;;;;;;84.95;23.92;;;;;;;2.68;99.94;96419.41;5097882;28;20100;-83
2022/12/02 02:55:51;;;;;;;64.68;24.08;;;;;;;2.61;99.92;96419.69;5098234;28;20040;-83
2022/12/02 02:58:26;;;;;;;85.22;24.75;;;;;;;2.61;100.00;96427.75;5097274;28;20063;-82
2022/12/02 03:00:55;;;;;;;69.28;23.58;;;;;;;2.65;100.00;96428.00;5089532;28;20104;-82
2022/12/02 03:03:26;;;;;;;89.03;24.90;;;;;;;2.67;100.00;96423.97;5079909;28;20049;-81
2022/12/02 03:06:03;;;;;;;67.68;23.95;;;;;;;2.68;100.00;96420.22;5101028;22;20040;-81
2022/12/02 03:08:31;;;;;;;77.03;24.55;;;;;;;2.72;99.83;96418.63;5103466;28;20054;-81
2022/12/02 03:11:00;;;;;;;67.47;24.52;;;;;;;2.74;99.88;96421.03;5102249;28;20047;-82
2022/12/02 03:13:31;;;;;;;75.32;24.15;;;;;;;2.73;99.72;96414.03;5107686;28;20044;-82
2022/12/02 03:15:58;;;;;;;75.30;23.95;;;;;;;2.74;99.80;96410.28;5108640;28;20104;-81
2022/12/02 03:18:25;;;;;;;60.17;23.02;;;;;;;2.73;99.91;96412.16;5107485;28;20107;-82
2022/12/02 03:20:55;;;;;;;74.05;24.10;;;;;;;2.74;99.84;96408.38;5106722;28;20050;-82
2022/12/02 03:23:22;;;;;;;68.63;25.38;;;;;;;2.75;99.92;96406.50;5109279;28;20052;-81
2022/12/02 03:25:49;;;;;;;81.45;24.23;;;;;;;2.74;100.00;96410.28;5108202;28;20112;-81
2022/12/02 03:28:17;;;;;;;82.30;24.05;;;;;;;2.72;100.00;96410.56;5109135;28;20048;-82
2022/12/02 03:30:45;;;;;;;76.47;23.75;;;;;;;2.69;100.00;96408.38;5114923;28;20040;-82
2022/12/02 03:33:13;;;;;;;75.93;25.52;;;;;;;2.69;100.00;96403.00;5110798;28;20066;-82
2022/12/02 03:35:40;;;;;;;71.50;25.58;;;;;;;2.71;100.00;96408.91;5111042;28;20040;-81
2022/12/02 03:38:07;;;;;;;71.35;24.83;;;;;;;2.70;100.00;96410.00;5107781;28;20112;-81
2022/12/02 03:40:34;;;;;;;66.75;25.70;;;;;;;2.65;100.00;96407.28;5111188;28;20047;-82
2022/12/02 03:43:01;;;;;;;64.60;25.30;;;;;;;2.60;100.00;96409.97;5104763;28;20108;-82
2022/12/02 03:45:28;;;;;;;85.90;25.27;;;;;;;2.63;100.00;96409.44;5103708;28;20440;-81
2022/12/02 03:47:56;;;;;;;66.35;24.58;;;;;;;2.62;100.00;96405.16;5104246;28;20131;-81
2022/12/02 03:50:23;;;;;;;74.43;26.08;;;;;;;2.62;100.00;96405.16;5104694;28;20070;-82
2022/12/02 03:52:50;;;;;;;78.38;25.15;;;;;;;2.60;100.00;96400.03;5100938;28;20051;-81
2022/12/02 03:55:17;;;;;;;63.50;24.13;;;;;;;2.57;100.00;96400.56;5103428;28;20050;-81
2022/12/02 03:57:44;;;;;;;74.65;23.50;;;;;;;2.61;100.00;96400.84;5099542;28;20043;-81
2022/12/02 04:00:13;;;;;;;74.60;26.65;;;;;;;2.55;100.00;96402.69;5100614;28;20044;-81
2022/12/02 04:02:40;;;;;;;74.95;24.08;;;;;;;2.49;100.00;96397.59;5102320;28;20112;-81
2022/12/02 04:05:09;;;;;;;71.43;25.02;;;;;;;2.47;100.00;96394.38;5100156;28;20853;-82
2022/12/02 04:07:35;;;;;;;74.75;25.00;;;;;;;2.48;100.00;96393.28;5099739;28;20055;-80
2022/12/02 04:10:02;;;;;;;61.55;23.90;;;;;;;2.42;100.00;96391.66;5099041;28;20048;-81
2022/12/02 04:12:28;;;;;;;83.70;23.88;;;;;;;2.39;100.00;96387.59;5102629;28;20040;-81
2022/12/02 04:14:55;;;;;;;82.38;25.05;;;;;;;2.37;100.00;96387.06;5098259;28;20036;-82
2022/12/02 04:17:21;;;;;;;81.32;24.25;;;;;;;2.38;100.00;96386.00;5097832;28;20048;-79
2022/12/02 04:19:49;;;;;;;71.20;25.65;;;;;;;2.38;100.00;96382.50;5106073;28;20044;-80
2022/12/02 04:22:17;;;;;;;72.60;24.05;;;;;;;2.38;100.00;96379.81;5097229;28;20131;-81
2022/12/02 04:24:46;;;;;;;64.85;24.52;;;;;;;2.35;100.00;96376.59;5095375;28;20040;-81
2022/12/02 04:27:12;;;;;;;74.63;24.70;;;;;;;2.31;100.00;96380.88;5096889;28;20040;-81
2022/12/02 04:29:39;;;;;;;86.20;25.88;;;;;;;2.23;100.00;96378.69;5098529;28;20048;-80
2022/12/02 04:32:05;;;;;;;71.43;24.00;;;;;;;2.20;100.00;96384.63;5106469;28;20054;-80
2022/12/02 04:34:32;;;;;;;77.57;26.30;;;;;;;2.20;100.00;96371.19;5103861;28;20394;-80
2022/12/02 04:36:58;;;;;;;76.68;25.85;;;;;;;2.19;100.00;96372.22;5105921;28;20489;-79
2022/12/02 04:39:26;;;;;;;136.80;44.38;;;;;;;2.20;99.92;96375.75;5107342;28;20044;-81
2022/12/02 04:41:53;;;;;;;86.63;23.50;;;;;;;2.12;99.88;96373.56;5099253;28;20050;-80
2022/12/02 04:44:21;;;;;;;107.75;27.50;;;;;;;2.08;99.74;96370.59;5104095;28;20116;-80
2022/12/02 04:46:47;;;;;;;91.70;25.17;;;;;;;2.06;99.56;96372.75;5104762;28;20075;-81
2022/12/02 04:49:14;;;;;;;90.18;25.65;;;;;;;2.07;99.61;96379.72;5107337;28;20051;-80
2022/12/02 04:51:41;;;;;;;94.07;25.13;;;;;;;2.04;99.70;96374.88;5107070;28;20048;-80
2022/12/02 04:54:07;;;;;;;91.63;26.55;;;;;;;2.02;99.72;96371.63;5105280;28;20404;-80
2022/12/02 04:56:38;;;;;;;83.25;26.73;;;;;;;1.97;99.70;96372.44;5107747;28;20103;-81
2022/12/02 04:59:05;;;;;;;71.93;25.67;;;;;;;2.01;99.67;96370.84;5109534;28;20545;-80
2022/12/02 05:01:31;;;;;;;96.05;25.67;;;;;;;2.03;99.76;96373.25;5113218;28;20033;-82
2022/12/02 05:03:58;;;;;;;96.25;28.05;;;;;;;2.01;99.94;96370.03;5109913;28;20056;-81
2022/12/02 05:06:25;;;;;;;75.18;26.02;;;;;;;2.03;99.88;96367.88;5106936;28;20670;-79
2022/12/02 05:08:51;;;;;;;74.80;25.92;;;;;;;2.06;100.00;96370.84;5108707;28;20323;-80
2022/12/02 05:11:18;;;;;;;81.80;26.95;;;;;;;2.03;100.00;96371.38;5112010;28;20040;-80
2022/12/02 05:13:46;;;;;;;84.65;26.98;;;;;;;2.03;100.00;96370.56;5110586;28;20048;-80
2022/12/02 05:16:13;;;;;;;81.10;26.63;;;;;;;2.03;100.00;96367.88;5109688;28;20039;-81
2022/12/02 05:18:40;;;;;;;85.93;26.85;;;;;;;2.03;100.00;96365.19;5111661;28;20051;-82
2022/12/02 05:21:06;;;;;;;85.38;26.27;;;;;;;2.02;100.00;96361.69;5120902;28;20130;-82
2022/12/02 05:23:33;;;;;;;91.38;27.73;;;;;;;2.00;100.00;96363.06;5114124;28;20052;-81
2022/12/02 05:25:59;;;;;;;86.28;27.40;;;;;;;2.05;100.00;96365.75;5111167;28;20037;-82
2022/12/02 05:28:26;;;;;;;85.15;29.30;;;;;;;2.03;100.00;96362.50;5105680;28;20108;-82
2022/12/02 05:30:55;;;;;;;82.03;27.33;;;;;;;2.07;100.00;96363.59;5105205;28;20051;-81
2022/12/02 05:33:22;;;;;;;69.00;26.20;;;;;;;2.06;100.00;96368.16;5110091;28;20044;-82
2022/12/02 05:35:48;;;;;;;98.35;30.73;;;;;;;2.07;100.00;96364.41;5105161;28;20040;-82
2022/12/02 05:38:15;;;;;;;82.47;28.50;;;;;;;2.08;100.00;96365.22;5107840;28;20047;-81
2022/12/02 05:40:42;;;;;;;82.97;29.30;;;;;;;2.04;100.00;96364.94;5110670;28;20048;-81
2022/12/02 05:43:17;;;;;;;91.38;26.63;;;;;;;2.05;100.00;96365.75;5113297;28;20127;-81
2022/12/02 05:45:43;;;;;;;113.40;31.15;;;;;;;2.06;100.00;96364.69;5114383;28;20044;-82
2022/12/02 05:48:14;;;;;;;139.45;41.92;;;;;;;2.03;100.00;96363.31;5117807;28;20040;-82
2022/12/02 05:50:41;;;;;;;113.35;28.58;;;;;;;2.01;100.00;96367.34;5118070;28;20058;-82
2022/12/02 05:53:10;;;;;;;91.05;28.55;;;;;;;2.02;100.00;96367.06;5114271;28;20036;-81
2022/12/02 05:55:37;;;;;;;81.68;28.90;;;;;;;2.05;100.00;96373.81;5113656;28;20067;-82
2022/12/02 05:58:07;;;;;;;91.18;28.98;;;;;;;2.04;100.00;96361.47;5108186;28;20070;-81
2022/12/02 06:00:33;;;;;;;95.80;31.20;;;;;;;1.98;100.00;96357.13;5103897;28;20052;-82
2022/12/02 06:03:02;;;;;;;83.70;26.38;;;;;;;1.99;100.00;96361.44;5114005;28;20036;-82
2022/12/02 06:05:36;;;;;;;91.03;28.02;;;;;;;2.02;100.00;96360.91;5108294;28;20499;-82
2022/12/02 06:08:14;;;;;;;79.55;26.55;;;;;;;2.01;100.00;96356.59;5111308;28;20135;-81
2022/12/02 06:10:43;;;;;;;128.93;28.00;;;;;;;2.03;100.00;96357.13;5105953;28;20044;-82
2022/12/02 06:13:18;;;;;;;112.20;27.42;;;;;;;2.05;100.00;96360.38;5112966;28;20099;-82
2022/12/02 06:15:47;;;;;;;94.85;27.88;;;;;;;2.04;100.00;96356.09;5112156;28;20710;-81
2022/12/02 06:18:17;;;;;;;90.90;29.52;;;;;;;1.95;100.00;96355.78;5108468;28;20051;-83
2022/12/02 06:20:46;;;;;;;91.63;29.83;;;;;;;1.98;100.00;96354.44;5106748;28;20690;-82
2022/12/02 06:23:16;;;;;;;96.13;29.23;;;;;;;1.95;100.00;96357.66;5105576;28;20044;-81
2022/12/02 06:25:44;;;;;;;113.95;28.65;;;;;;;1.96;100.00;96361.94;5103503;28;20039;-80
2022/12/02 06:28:22;;;;;;;114.25;27.63;;;;;;;1.97;100.00;96359.00;5100463;28;20054;-81
2022/12/02 06:30:49;;;;;;;97.47;28.08;;;;;;;1.99;100.00;96366.81;5112620;27;20028;-80
2022/12/02 06:33:28;;;;;;;98.28;27.73;;;;;;;2.00;100.00;96357.69;5111289;28;20563;-82
2022/12/02 06:36:00;;;;;;;77.80;26.08;;;;;;;2.01;100.00;96368.16;5104274;28;20055;-82
2022/12/02 06:38:30;;;;;;;71.75;25.35;;;;;;;2.03;100.00;96368.69;5116742;28;20048;-81
2022/12/02 06:40:59;;;;;;;83.95;26.42;;;;;;;2.04;100.00;96366.84;5098442;28;20040;-79
2022/12/02 06:43:30;;;;;;;103.05;27.70;;;;;;;2.07;100.00;96368.97;5104796;28;20059;-78
2022/12/02 06:45:57;;;;;;;77.68;26.95;;;;;;;2.07;99.99;96377.03;5092204;28;20048;-78
2022/12/02 06:48:28;;;;;;;82.57;25.55;;;;;;;2.07;100.00;96374.34;5107373;28;20026;-80
2022/12/02 06:51:07;;;;;;;83.40;24.67;;;;;;;2.07;100.00;96377.03;5107174;28;20048;-82
2022/12/02 06:53:38;;;;;;;95.93;26.88;;;;;;;2.02;99.57;96374.31;5118741;28;20046;-83
2022/12/02 06:56:21;;;;;;;94.60;25.92;;;;;;;1.99;99.35;96373.00;5123244;27;20100;-82
2022/12/02 06:58:56;;;;;;;59.03;24.80;;;;;;;1.95;99.24;96374.56;5115668;28;20064;-81
2022/12/02 07:01:30;;;;;;;66.05;25.25;;;;;;;1.94;98.75;96372.16;5114281;28;20051;-81
2022/12/02 07:04:04;;;;;;;67.18;25.63;;;;;;;1.90;97.85;96371.88;5103122;28;20036;-80
2022/12/02 07:06:33;;;;;;;62.22;24.95;;;;;;;1.85;97.99;96373.72;5108065;28;20119;-80
2022/12/02 07:09:03;;;;;;;70.20;26.13;;;;;;;1.89;97.85;96372.13;5107016;28;20024;-83
2022/12/02 07:11:50;;;;;;;65.13;25.25;;;;;;;1.86;98.00;96365.41;5113985;28;20058;-81
2022/12/02 07:14:25;;;;;;;77.07;26.83;;;;;;;1.85;98.02;96371.03;5116017;28;20066;-82
2022/12/02 07:16:54;;;;;;;91.22;25.85;;;;;;;1.83;97.66;96365.94;5101019;28;20048;-81
2022/12/02 07:19:23;;;;;;;80.82;27.58;;;;;;;1.80;97.94;96367.25;5112034;28;20164;-80
2022/12/02 07:21:51;;;;;;;82.55;27.55;;;;;;;1.80;98.13;96375.31;5117740;28;20027;-82
2022/12/02 07:24:21;;;;;;;71.55;27.52;;;;;;;1.77;97.45;96373.13;5115218;28;20131;-81
2022/12/02 07:26:49;;;;;;;84.13;25.80;;;;;;;1.76;97.70;96374.22;5103422;28;20059;-81
2022/12/02 07:29:24;;;;;;;79.82;26.10;;;;;;;1.83;97.84;96368.63;5105626;28;20044;-81
2022/12/02 07:31:50;;;;;;;82.40;26.23;;;;;;;1.86;97.65;96378.81;5112148;28;20066;-83
2022/12/02 07:34:17;;;;;;;75.35;26.65;;;;;;;1.80;97.56;96378.00;5115810;28;20032;-81
2022/12/02 07:36:43;;;;;;;79.13;26.65;;;;;;;1.88;97.62;96378.56;5119452;28;20044;-80
2022/12/02 07:39:12;;;;;;;73.20;25.85;;;;;;;1.89;97.76;96377.50;5114996;28;20044;-82
2022/12/02 07:41:39;;;;;;;56.65;24.58;;;;;;;1.92;97.48;96367.03;5107993;28;20051;-80
2022/12/02 07:44:09;;;;;;;64.05;27.17;;;;;;;1.96;97.73;96375.38;5109732;28;20063;-81
2022/12/02 07:46:36;;;;;;;62.58;25.88;;;;;;;2.00;97.31;96373.78;5109826;28;20043;-81
2022/12/02 07:49:02;;;;;;;67.53;26.58;;;;;;;2.00;97.48;96371.09;5106421;28;20112;-78
2022/12/02 07:51:29;;;;;;;65.97;26.00;;;;;;;2.03;97.23;96378.63;5102863;28;20046;-81
2022/12/02 07:53:56;;;;;;;66.50;26.35;;;;;;;2.05;97.26;96376.50;5102338;28;20044;-82
2022/12/02 07:56:24;;;;;;;68.82;27.02;;;;;;;2.04;97.32;96380.25;5108448;28;20068;-84
2022/12/02 07:58:51;;;;;;;64.68;26.00;;;;;;;2.09;97.13;96380.28;5108257;28;20044;-83
2022/12/02 08:01:17;;;;;;;63.08;25.90;;;;;;;2.10;97.54;96373.84;5104391;28;20040;-78
2022/12/02 08:03:44;;;;;;;99.07;27.33;;;;;;;2.08;97.16;96384.00;5102917;28;20143;-78
2022/12/02 08:06:10;;;;;;;94.63;26.10;;;;;;;2.07;96.79;96379.72;5107458;28;20040;-80
2022/12/02 08:08:38;;;;;;;91.05;24.63;;;;;;;2.04;96.86;96374.88;5107263;28;20051;-81
2022/12/02 08:11:05;;;;;;;75.20;25.10;;;;;;;2.03;96.93;96378.63;5115926;28;20047;-81
2022/12/02 08:13:33;;;;;;;92.00;26.05;;;;;;;2.02;97.01;96377.00;5108908;28;20054;-79
2022/12/02 08:16:00;;;;;;;60.10;25.35;;;;;;;1.98;96.82;96376.72;5094863;28;20032;-78
2022/12/02 08:18:28;;;;;;;78.25;25.33;;;;;;;1.99;97.09;96377.56;5097018;28;20040;-80
2022/12/02 08:20:54;;;;;;;77.40;25.33;;;;;;;1.94;97.10;96382.91;5113780;28;20103;-80
2022/12/02 08:23:21;;;;;;;87.57;24.88;;;;;;;1.89;97.49;96375.63;5109583;28;20048;-80
2022/12/02 08:25:47;;;;;;;66.75;26.58;;;;;;;1.93;97.60;96373.22;5109924;28;20048;-81
2022/12/02 08:28:15;;;;;;;81.00;24.80;;;;;;;1.98;97.69;96378.59;5103560;28;20079;-80
2022/12/02 08:30:44;;;;;;;87.80;27.88;;;;;;;1.96;97.55;96375.38;5097648;28;20143;-82
2022/12/02 08:33:11;;;;;;;91.38;28.20;;;;;;;1.94;97.93;96374.84;5101934;28;20079;-78
2022/12/02 08:35:38;;;;;;;89.78;24.58;;;;;;;1.95;97.68;96371.09;5105749;28;20048;-79
2022/12/02 08:38:05;;;;;;;77.10;25.25;;;;;;;1.92;97.44;96376.97;5098447;28;20040;-80
2022/12/02 08:40:33;;;;;;;76.07;24.70;;;;;;;1.92;97.93;96372.41;5095617;22;20403;-80
2022/12/02 08:43:00;;;;;;;85.55;26.77;;;;;;;1.93;98.33;96378.59;5073648;28;20103;-79
2022/12/02 08:45:27;;;;;;;79.95;27.90;;;;;;;1.94;98.45;96370.28;5072201;28;20047;-81
2022/12/02 08:47:55;;;;;;;94.35;26.55;;;;;;;1.99;98.58;96372.19;5073576;28;20053;-79
2022/12/02 08:50:21;;;;;;;77.82;25.40;;;;;;;2.07;98.75;96374.34;5072590;28;20041;-77
2022/12/02 08:52:48;;;;;;;73.07;24.88;;;;;;;2.14;99.16;96376.78;5073763;28;20049;-79
2022/12/02 08:55:14;;;;;;;94.50;27.48;;;;;;;2.20;99.17;96367.69;5078462;28;20118;-77
2022/12/02 08:57:43;;;;;;;65.38;25.92;;;;;;;2.22;99.30;96371.72;5078824;28;20055;-81
2022/12/02 09:00:11;;;;;;;76.85;26.48;;;;;;;2.28;99.32;96370.66;5074689;28;20068;-77
2022/12/02 09:02:38;;;;;;;89.30;26.40;;;;;;;2.19;97.92;96366.84;5073736;28;20503;-79
2022/12/02 09:05:06;;;;;;;76.72;25.73;;;;;;;2.18;97.59;96367.94;5075232;28;20044;-80
2022/12/02 09:07:33;;;;;;;67.97;24.83;;;;;;;2.11;97.59;96370.06;5082980;28;20107;-81
2022/12/02 09:10:01;;;;;;;77.35;26.60;;;;;;;2.07;97.61;96371.66;5092057;28;20047;-78
2022/12/02 09:12:27;;;;;;;88.05;27.60;;;;;;;2.04;97.47;96364.16;5074940;28;20052;-75
2022/12/02 09:14:54;;;;;;;88.85;27.83;;;;;;;2.08;97.69;96370.59;5075706;28;20041;-75
2022/12/02 09:17:20;;;;;;;93.95;28.10;;;;;;;2.09;98.16;96361.47;5075299;28;20565;-77
2022/12/02 09:19:52;;;;;;;68.82;25.25;;;;;;;2.12;98.37;96366.31;5088565;28;20041;-82
2022/12/02 09:22:21;;;;;;;92.22;28.23;;;;;;;2.09;97.38;96366.84;5095738;28;20040;-79
2022/12/02 09:24:47;;;;;;;79.18;25.98;;;;;;;2.10;97.91;96363.09;5094914;28;20064;-79
2022/12/02 09:27:14;;;;;;;74.82;23.88;;;;;;;2.13;98.07;96357.16;5072187;28;20045;-78
2022/12/02 09:29:41;;;;;;;96.25;29.48;;;;;;;2.14;98.12;96364.19;5086573;28;20047;-82
2022/12/02 09:32:08;;;;;;;110.18;47.63;;;;;;;2.17;97.77;96363.63;5084624;28;20071;-82
2022/12/02 09:34:37;;;;;;;237.73;66.75;;;;;;;2.15;97.71;96359.63;5087292;28;20055;-81
2022/12/02 09:37:07;;;;;;;100.07;27.42;;;;;;;2.11;97.70;96359.31;5082943;28;20104;-81
2022/12/02 09:39:39;;;;;;;71.78;24.98;;;;;;;2.12;98.10;96355.56;5082973;28;20063;-81
2022/12/02 09:42:06;;;;;;;77.97;24.90;;;;;;;2.16;98.26;96356.66;5080546;28;20041;-79
2022/12/02 09:44:35;;;;;;;74.82;24.90;;;;;;;2.18;97.15;96354.50;5079052;28;20051;-82
2022/12/02 09:47:02;;;;;;;76.72;24.80;;;;;;;2.23;97.22;96351.03;5074224;28;20044;-80
2022/12/02 09:49:30;;;;;;;84.97;24.58;;;;;;;2.28;97.59;96349.16;5086690;28;20047;-79
2022/12/02 09:52:00;;;;;;;92.88;25.77;;;;;;;2.30;98.55;96346.22;5082312;28;20044;-82
2022/12/02 09:54:26;;;;;;;71.10;24.23;;;;;;;2.32;98.14;96352.13;5077652;28;20389;-77
2022/12/02 09:56:55;;;;;;;64.43;24.27;;;;;;;2.32;97.76;96344.06;5068229;28;20049;-79
2022/12/02 09:59:22;;;;;;;79.05;24.55;;;;;;;2.31;97.35;96343.25;5076292;28;20056;-79
2022/12/02 10:01:49;;;;;;;72.03;24.10;;;;;;;2.31;97.08;96345.94;5079703;28;20056;-78
2022/12/02 10:04:19;;;;;;;64.82;23.70;;;;;;;2.32;97.43;96344.88;5083251;28;20040;-78
2022/12/02 10:06:46;;;;;;;97.88;28.55;;;;;;;2.37;97.55;96345.97;5074988;28;20047;-78
2022/12/02 10:09:16;;;;;;;74.18;26.15;;;;;;;2.33;97.41;96341.09;5075647;28;20040;-78
2022/12/02 10:11:44;;;;;;;79.82;26.88;;;;;;;2.39;97.93;96343.81;5075799;28;20083;-80
2022/12/02 10:14:13;;;;;;;62.28;23.98;;;;;;;2.47;97.92;96340.59;5084648;28;20410;-81
2022/12/02 10:16:40;;;;;;;87.60;26.50;;;;;;;2.56;97.88;96336.31;5079825;28;20044;-79
2022/12/02 10:19:10;;;;;;;70.90;24.52;;;;;;;2.56;98.14;96333.63;5076323;28;20045;-77
2022/12/02 10:21:36;;;;;;;115.57;25.40;;;;;;;2.51;97.80;96329.06;5074422;28;20438;-79
2022/12/02 10:24:06;;;;;;;62.25;26.50;;;;;;;2.46;97.82;96328.25;5083381;28;20041;-79
2022/12/02 10:26:44;;;;;;;97.53;29.50;;;;;;;2.45;97.68;96326.63;5086723;28;20040;-79
2022/12/02 10:29:17;;;;;;;86.85;24.65;;;;;;;2.41;97.53;96331.72;5082852;28;20101;-79
2022/12/02 10:31:53;;;;;;;81.13;25.17;;;;;;;2.46;98.02;96321.00;5090198;28;20044;-81
2022/12/02 10:34:21;;;;;;;73.95;24.83;;;;;;;2.56;98.48;96322.88;5097328;28;20064;-79
2022/12/02 10:36:48;;;;;;;90.80;24.30;;;;;;;2.59;99.07;96319.66;5085042;28;20050;-76
2022/12/02 10:39:23;;;;;;;106.72;27.02;;;;;;;2.62;99.37;96319.13;5087395;28;20055;-78
2022/12/02 10:42:07;;;;;;;80.82;25.08;;;;;;;2.69;98.90;96314.28;5085468;28;20047;-78
2022/12/02 10:44:37;;;;;;;191.60;49.03;;;;;;;2.64;97.06;96313.47;5080106;28;20519;-77
2022/12/02 10:47:11;;;;;;;179.43;56.95;;;;;;;2.65;97.45;96315.06;5085757;28;20072;-79
2022/12/02 10:49:38;;;;;;;61.40;24.52;;;;;;;2.75;97.94;96315.88;5078430;28;20045;-77
2022/12/02 10:52:09;;;;;;;88.78;25.55;;;;;;;2.80;97.85;96318.56;5074244;28;20049;-76
2022/12/02 10:54:39;;;;;;;79.28;26.13;;;;;;;2.84;98.25;96319.66;5074055;28;20047;-76
2022/12/02 10:57:06;;;;;;;86.03;24.80;;;;;;;2.86;98.43;96317.50;5073943;28;20041;-77
2022/12/02 10:59:36;;;;;;;95.88;26.20;;;;;;;2.81;98.48;96304.03;5074333;28;20135;-76
2022/12/02 11:02:02;;;;;;;84.68;25.65;;;;;;;2.77;98.29;96308.38;5075854;28;20045;-76
2022/12/02 11:04:29;;;;;;;68.82;23.17;;;;;;;2.69;98.08;96300.84;5073600;28;20136;-77
2022/12/02 11:06:57;;;;;;;70.80;22.48;;;;;;;2.60;97.71;96297.88;5088663;28;20052;-82
2022/12/02 11:09:28;;;;;;;78.03;24.20;;;;;;;2.55;97.49;96291.69;5088763;28;20055;-83
2022/12/02 11:12:14;;;;;;;75.50;26.90;;;;;;;2.45;98.03;96288.97;5088126;28;20079;-81
2022/12/02 11:14:56;;;;;;;133.57;49.33;;;;;;;2.49;98.22;96284.69;5084516;28;20049;-81
2022/12/02 11:17:45;;;;;;;198.35;80.40;;;;;;;2.51;98.29;96293.31;5080611;28;20454;-81
2022/12/02 11:20:34;;;;;;;213.95;70.57;;;;;;;2.58;99.17;96288.47;5076166;28;20138;-82
2022/12/02 11:23:22;;;;;;;71.50;24.13;;;;;;;2.56;99.45;96280.69;5088017;28;20049;-81
2022/12/02 11:26:14;;;;;;;73.00;22.50;;;;;;;2.56;99.46;96285.25;5080863;28;20047;-80
2022/12/02 11:29:04;;;;;;;84.53;26.40;;;;;;;2.53;99.47;96288.47;5086229;28;20071;-79